| time (UTC) | temp C | wind direction | speed KPH | gust KPH | rain 1hr cm | rain 24hr cm | rain mn cm | humidity % | barometer mb |
| 20260508110034 | 15 | 352 | 1.6 | 12.9 | 0.00 | 1.65 | 1.60 | 99 | 1004.4 |
| 20260508105030 | 15 | 321 | 1.6 | 12.9 | 0.00 | 1.68 | 1.60 | 99 | 1004.3 |
| 20260508104030 | 15 | 315 | 0.0 | 12.9 | 0.00 | 1.68 | 1.60 | 99 | 1004.5 |
| 20260508103024 | 15 | 5 | 1.6 | 12.9 | 0.00 | 1.70 | 1.60 | 99 | 1004.6 |
| 20260508102020 | 15 | 339 | 3.2 | 16.1 | 0.03 | 1.70 | 1.60 | 99 | 1004.7 |
| 20260508101016 | 15 | 329 | 0.0 | 14.5 | 0.13 | 1.70 | 1.60 | 99 | 1004.8 |
| 20260508100114 | 15 | 343 | 1.6 | 16.1 | 0.33 | 1.70 | 1.60 | 99 | 1004.8 |
| 20260508095111 | 15 | 308 | 8.0 | 19.3 | 0.51 | 1.70 | 1.60 | 99 | 1004.8 |
| 20260508094106 | 13 | 344 | 6.4 | 20.9 | 0.71 | 1.70 | 1.60 | 99 | 1004.9 |
| 20260508093125 | 15 | 0.0 | 6.4 | 0.94 | 1.70 | 1.60 | 99 | 1004.8 | |
| 20260508092100 | 16 | 0 | 0.0 | 16.1 | 0.94 | 1.68 | 1.55 | 99 | 1003.9 |
| 20260508091058 | 16 | 293 | 0.0 | 12.9 | 0.84 | 1.60 | 1.47 | 99 | 1003.9 |
| 20260508090053 | 16 | 0 | 0.0 | 3.2 | 0.64 | 1.37 | 1.27 | 99 | 1004.2 |
| 20260508085109 | 16 | 315 | 0.0 | 8.0 | 0.46 | 1.19 | 1.09 | 99 | 1004.1 |
| 20260508084046 | 16 | 301 | 0.0 | 17.7 | 0.33 | 0.99 | 0.86 | 99 | 1004.3 |
| 20260508083044 | 16 | 345 | 1.6 | 17.7 | 0.23 | 0.79 | 0.66 | 99 | 1004.2 |
| 20260508082039 | 16 | 319 | 8.0 | 27.4 | 0.30 | 0.76 | 0.64 | 99 | 1004.3 |
| 20260508081035 | 16 | 351 | 8.0 | 29.0 | 0.30 | 0.76 | 0.64 | 99 | 1004.4 |
| 20260508080053 | 16 | 359 | 16.1 | 33.8 | 0.30 | 0.76 | 0.64 | 98 | 1004.1 |
| 20260508075028 | 16 | 335 | 30.6 | 54.7 | 0.30 | 0.76 | 0.64 | 97 | 1003.8 |
| 20260508074025 | 16 | 353 | 48.3 | 69.2 | 0.28 | 0.66 | 0.53 | 96 | 1003.4 |
| 20260508073022 | 16 | 345 | 54.7 | 85.3 | 0.20 | 0.53 | 0.43 | 95 | 1003.6 |
| 20260508072039 | 16 | 338 | 45.1 | 69.2 | 0.13 | 0.46 | 0.33 | 95 | 1003.8 |
| 20260508071136 | 16 | 2 | 54.7 | 93.3 | 0.13 | 0.46 | 0.33 | 95 | 1003.6 |
| 20260508070111 | 16 | 346 | 64.4 | 90.1 | 0.13 | 0.46 | 0.33 | 97 | 1003.8 |
| 20260508065130 | 16 | 2 | 53.1 | 78.9 | 0.13 | 0.46 | 0.33 | 97 | 1004.1 |
| 20260508064103 | 16 | 349 | 56.3 | 78.9 | 0.05 | 0.38 | 0.28 | 96 | 1004.9 |
| 20260508063100 | 16 | 348 | 53.1 | 85.3 | 0.00 | 0.33 | 0.20 | 96 | 1004.8 |
| 20260508062056 | 16 | 350 | 49.9 | 83.7 | 0.05 | 0.33 | 0.20 | 96 | 1004.3 |
| 20260508061116 | 16 | 346 | 59.5 | 95.0 | 0.05 | 0.33 | 0.20 | 96 | 1004.5 |
| 20260508060049 | 16 | 357 | 53.1 | 85.3 | 0.05 | 0.33 | 0.20 | 97 | 1004.5 |
| 20260508055046 | 16 | 352 | 53.1 | 72.4 | 0.10 | 0.33 | 0.20 | 97 | 1004.7 |
| 20260508054042 | 16 | 356 | 54.7 | 82.1 | 0.10 | 0.33 | 0.20 | 96 | 1004.8 |
| 20260508053039 | 16 | 356 | 54.7 | 88.5 | 0.13 | 0.33 | 0.20 | 96 | 1004.7 |
| 20260508052118 | 16 | 14 | 57.9 | 91.7 | 0.10 | 0.28 | 0.15 | 96 | 1004.8 |
| 20260508051032 | 16 | 0 | 56.3 | 74.0 | 0.10 | 0.28 | 0.15 | 96 | 1004.9 |
| 20260508050029 | 16 | 337 | 53.1 | 80.5 | 0.10 | 0.28 | 0.15 | 96 | 1004.9 |
| 20260508045025 | 16 | 2 | 49.9 | 74.0 | 0.10 | 0.23 | 0.13 | 96 | 1005.0 |
| 20260508044022 | 16 | 352 | 49.9 | 70.8 | 0.10 | 0.23 | 0.13 | 95 | 1005.0 |
| 20260508043018 | 16 | 356 | 48.3 | 78.9 | 0.05 | 0.20 | 0.10 | 94 | 1005.4 |
| 20260508042115 | 16 | 356 | 48.3 | 66.0 | 0.03 | 0.18 | 0.05 | 93 | 1005.8 |
| 20260508041113 | 16 | 13 | 48.3 | 69.2 | 0.03 | 0.18 | 0.05 | 92 | 1005.8 |
| 20260508040109 | 16 | 3 | 54.7 | 74.0 | 0.03 | 0.18 | 0.05 | 91 | 1005.8 |
| 20260508035104 | 16 | 339 | 53.1 | 78.9 | 0.00 | 0.15 | 0.03 | 90 | 1005.8 |
| 20260508034102 | 16 | 348 | 54.7 | 80.5 | 0.00 | 0.15 | 0.03 | 90 | 1006.0 |
| 20260508033057 | 16 | 351 | 53.1 | 74.0 | 0.00 | 0.15 | 0.03 | 88 | 1006.1 |
| 20260508032054 | 16 | 349 | 49.9 | 69.2 | 0.00 | 0.15 | 0.03 | 86 | 1006.3 |
| 20260508031050 | 16 | 353 | 48.3 | 78.9 | 0.00 | 0.15 | 0.03 | 85 | 1006.4 |
| 20260508030047 | 16 | 0 | 48.3 | 66.0 | 0.00 | 0.15 | 0.03 | 85 | 1006.4 |
| 20260508025044 | 16 | 347 | 46.7 | 69.2 | 0.00 | 0.15 | 0.03 | 86 | 1006.6 |
| 20260508024042 | 16 | 347 | 45.1 | 75.6 | 0.00 | 0.15 | 0.03 | 87 | 1006.8 |
| 20260508023036 | 16 | 0 | 43.5 | 66.0 | 0.00 | 0.15 | 0.03 | 87 | 1007.1 |
| 20260508022035 | 16 | 4 | 49.9 | 67.6 | 0.00 | 0.15 | 0.03 | 89 | 1007.4 |
| 20260508021029 | 16 | 350 | 48.3 | 74.0 | 0.00 | 0.15 | 0.03 | 90 | 1007.6 |
| 20260508020026 | 16 | 0 | 46.7 | 64.4 | 0.00 | 0.15 | 0.03 | 90 | 1007.5 |
| 20260508015022 | 16 | 350 | 46.7 | 69.2 | 0.00 | 0.15 | 0.03 | 88 | 1007.8 |
| 20260508014018 | 16 | 5 | 46.7 | 67.6 | 0.00 | 0.15 | 0.03 | 86 | 1008.1 |
| 20260508013115 | 16 | 348 | 48.3 | 70.8 | 0.00 | 0.15 | 0.03 | 85 | 1008.4 |
| 20260508012112 | 16 | 360 | 45.1 | 64.4 | 0.00 | 0.15 | 0.03 | 84 | 1008.8 |
| 20260508011110 | 16 | 351 | 46.7 | 69.2 | 0.00 | 0.15 | 0.03 | 83 | 1009.3 |
| 20260508010106 | 16 | 351 | 45.1 | 57.9 | 0.00 | 0.15 | 0.03 | 84 | 1009.6 |
| 20260508005103 | 16 | 352 | 45.1 | 64.4 | 0.00 | 0.15 | 0.03 | 84 | 1009.8 |
| 20260508004059 | 16 | 350 | 48.3 | 69.2 | 0.00 | 0.15 | 0.03 | 84 | 1010.0 |
| 20260508003137 | 16 | 12 | 41.8 | 62.8 | 0.00 | 0.15 | 0.03 | 83 | 1010.2 |
| 20260508002050 | 16 | 344 | 41.8 | 61.2 | 0.00 | 0.15 | 0.03 | 84 | 1010.4 |
| 20260508001047 | 16 | 1 | 41.8 | 61.2 | 0.00 | 0.15 | 0.03 | 84 | 1010.7 |
| 20260508000043 | 16 | 350 | 40.2 | 64.4 | 0.00 | 0.15 | 0.03 | 86 | 1011.2 |
| 20260507235041 | 16 | 359 | 48.3 | 66.0 | 0.00 | 0.15 | 0.03 | 86 | 1011.3 |
| 20260507234039 | 16 | 2 | 43.5 | 62.8 | 0.00 | 0.15 | 0.03 | 87 | 1011.3 |
| 20260507233033 | 16 | 7 | 43.5 | 67.6 | 0.00 | 0.15 | 0.03 | 88 | 1011.6 |
| 20260507232029 | 16 | 358 | 43.5 | 62.8 | 0.00 | 0.15 | 0.03 | 89 | 1011.5 |
| 20260507231026 | 16 | 6 | 40.2 | 59.5 | 0.00 | 0.15 | 0.03 | 89 | 1011.7 |
| 20260507230024 | 16 | 346 | 37.0 | 59.5 | 0.00 | 0.15 | 0.03 | 88 | 1012.3 |
| 20260507225018 | 16 | 344 | 40.2 | 59.5 | 0.00 | 0.15 | 0.03 | 89 | 1012.6 |
| 20260507224016 | 16 | 9 | 38.6 | 54.7 | 0.00 | 0.15 | 0.03 | 89 | 1012.8 |
| 20260507223113 | 16 | 11 | 40.2 | 64.4 | 0.00 | 0.15 | 0.03 | 90 | 1012.9 |
| 20260507222131 | 16 | 355 | 35.4 | 53.1 | 0.00 | 0.15 | 0.03 | 90 | 1013.2 |
| 20260507221105 | 16 | 347 | 38.6 | 51.5 | 0.00 | 0.15 | 0.03 | 89 | 1013.4 |
| 20260507220104 | 16 | 348 | 45.1 | 61.2 | 0.00 | 0.15 | 0.03 | 90 | 1013.5 |
| 20260507215058 | 16 | 351 | 43.5 | 61.2 | 0.00 | 0.15 | 0.03 | 91 | 1013.6 |
| 20260507214055 | 16 | 20 | 43.5 | 67.6 | 0.00 | 0.15 | 0.03 | 91 | 1013.8 |
| 20260507213051 | 16 | 5 | 45.1 | 61.2 | 0.00 | 0.15 | 0.03 | 91 | 1013.8 |
| 20260507212048 | 16 | 334 | 37.0 | 53.1 | 0.00 | 0.15 | 0.03 | 90 | 1014.1 |
| 20260507211044 | 16 | 351 | 37.0 | 49.9 | 0.00 | 0.15 | 0.03 | 90 | 1014.2 |
| 20260507210042 | 16 | 5 | 41.8 | 66.0 | 0.00 | 0.15 | 0.03 | 91 | 1014.2 |
| 20260507205038 | 16 | 357 | 33.8 | 54.7 | 0.00 | 0.15 | 0.03 | 92 | 1014.4 |
| 20260507204034 | 16 | 4 | 32.2 | 49.9 | 0.00 | 0.15 | 0.03 | 91 | 1014.3 |
| 20260507203052 | 16 | 356 | 32.2 | 51.5 | 0.00 | 0.15 | 0.03 | 91 | 1014.3 |
| 20260507202027 | 16 | 355 | 37.0 | 53.1 | 0.00 | 0.15 | 0.03 | 91 | 1014.4 |
| 20260507201024 | 16 | 352 | 37.0 | 69.2 | 0.00 | 0.15 | 0.03 | 91 | 1014.4 |
| 20260507200103 | 16 | 351 | 40.2 | 62.8 | 0.00 | 0.15 | 0.03 | 91 | 1014.3 |
| 20260507195016 | 16 | 3 | 35.4 | 48.3 | 0.00 | 0.15 | 0.03 | 91 | 1014.3 |
| 20260507194113 | 16 | 352 | 37.0 | 54.7 | 0.00 | 0.15 | 0.03 | 91 | 1014.5 |
| 20260507193130 | 16 | 351 | 32.2 | 59.5 | 0.00 | 0.15 | 0.03 | 91 | 1014.5 |
| 20260507192106 | 16 | 12 | 40.2 | 53.1 | 0.00 | 0.15 | 0.03 | 91 | 1014.5 |
| 20260507191103 | 16 | 15 | 33.8 | 57.9 | 0.00 | 0.15 | 0.03 | 90 | 1014.6 |
| 20260507190059 | 17 | 342 | 38.6 | 54.7 | 0.00 | 0.15 | 0.03 | 90 | 1014.6 |
| 20260507185056 | 17 | 0 | 38.6 | 57.9 | 0.00 | 0.15 | 0.03 | 91 | 1014.7 |
| 20260507184117 | 16 | 0 | 40.2 | 54.7 | 0.00 | 0.15 | 0.03 | 91 | 1014.8 |
| 20260507183048 | 16 | 4 | 38.6 | 57.9 | 0.00 | 0.15 | 0.03 | 91 | 1014.9 |
| 20260507182045 | 16 | 353 | 35.4 | 59.5 | 0.00 | 0.15 | 0.03 | 91 | 1015.0 |
| 20260507181042 | 17 | 356 | 33.8 | 49.9 | 0.00 | 0.15 | 0.03 | 91 | 1015.0 |
| 20260507180039 | 16 | 323 | 35.4 | 61.2 | 0.00 | 0.15 | 0.03 | 91 | 1015.1 |
| 20260507175034 | 17 | 352 | 38.6 | 59.5 | 0.00 | 0.15 | 0.03 | 91 | 1015.0 |
| 20260507174031 | 17 | 17 | 40.2 | 56.3 | 0.00 | 0.15 | 0.03 | 92 | 1015.0 |
| 20260507173027 | 16 | 17 | 38.6 | 54.7 | 0.00 | 0.15 | 0.03 | 92 | 1015.1 |
| 20260507172045 | 16 | 354 | 38.6 | 64.4 | 0.00 | 0.15 | 0.03 | 93 | 1015.2 |
| 20260507171021 | 16 | 349 | 35.4 | 51.5 | 0.00 | 0.15 | 0.03 | 93 | 1015.3 |
| 20260507170019 | 16 | 8 | 38.6 | 56.3 | 0.00 | 0.15 | 0.03 | 94 | 1015.4 |
| 20260507165116 | 16 | 347 | 32.2 | 51.5 | 0.00 | 0.15 | 0.03 | 94 | 1015.4 |
| 20260507164110 | 16 | 357 | 37.0 | 51.5 | 0.00 | 0.15 | 0.03 | 94 | 1015.6 |
| 20260507163107 | 16 | 0 | 35.4 | 56.3 | 0.00 | 0.15 | 0.03 | 95 | 1015.6 |
| 20260507162105 | 16 | 21 | 37.0 | 53.1 | 0.00 | 0.15 | 0.03 | 95 | 1015.6 |
| 20260507161059 | 16 | 0 | 33.8 | 43.5 | 0.00 | 0.15 | 0.03 | 96 | 1015.7 |
| 20260507160057 | 16 | 0 | 32.2 | 40.2 | 0.00 | 0.15 | 0.03 | 96 | 1015.6 |
| 20260507155052 | 16 | 348 | 32.2 | 45.1 | 0.00 | 0.15 | 0.03 | 96 | 1015.9 |
| 20260507154109 | 16 | 351 | 33.8 | 48.3 | 0.00 | 0.15 | 0.03 | 96 | 1016.0 |
| 20260507153045 | 16 | 16 | 33.8 | 51.5 | 0.00 | 0.15 | 0.03 | 96 | 1016.1 |
| 20260507152042 | 16 | 356 | 37.0 | 48.3 | 0.00 | 0.15 | 0.03 | 96 | 1016.3 |
| 20260507151040 | 16 | 348 | 35.4 | 57.9 | 0.00 | 0.15 | 0.03 | 96 | 1016.4 |
| 20260507150035 | 16 | 2 | 35.4 | 56.3 | 0.00 | 0.15 | 0.03 | 96 | 1016.5 |
| 20260507145054 | 16 | 358 | 30.6 | 43.5 | 0.00 | 0.15 | 0.03 | 96 | 1016.7 |
| 20260507144028 | 16 | 331 | 37.0 | 56.3 | 0.00 | 0.15 | 0.03 | 96 | 1016.7 |
| 20260507143045 | 16 | 329 | 35.4 | 48.3 | 0.00 | 0.15 | 0.03 | 97 | 1016.8 |
| 20260507142020 | 16 | 315 | 33.8 | 41.8 | 0.00 | 0.15 | 0.03 | 97 | 1017.0 |
| 20260507141038 | 16 | 315 | 33.8 | 41.8 | 0.00 | 0.15 | 0.03 | 97 | 1017.2 |
| 20260507140115 | 16 | 315 | 43.5 | 53.1 | 0.00 | 0.15 | 0.03 | 98 | 1017.3 |
| 20260507135110 | 16 | 341 | 40.2 | 53.1 | 0.00 | 0.15 | 0.03 | 98 | 1017.4 |
| 20260507134109 | 16 | 330 | 35.4 | 53.1 | 0.00 | 0.15 | 0.03 | 99 | 1017.5 |
| 20260507133103 | 16 | 348 | 35.4 | 64.4 | 0.00 | 0.15 | 0.03 | 99 | 1017.7 |
| 20260507132059 | 16 | 350 | 35.4 | 53.1 | 0.00 | 0.15 | 0.03 | 99 | 1017.7 |
| 20260507131056 | 16 | 357 | 33.8 | 54.7 | 0.03 | 0.15 | 0.03 | 99 | 1018.0 |
| 20260507130115 | 16 | 342 | 29.0 | 43.5 | 0.03 | 0.15 | 0.03 | 99 | 1018.1 |
| 20260507125049 | 16 | 10 | 29.0 | 43.5 | 0.03 | 0.15 | 0.03 | 99 | 1018.1 |
| 20260507124047 | 16 | 6 | 32.2 | 49.9 | 0.05 | 0.15 | 0.03 | 99 | 1018.2 |
| 20260507123042 | 16 | 352 | 29.0 | 43.5 | 0.05 | 0.15 | 0.03 | 98 | 1018.2 |
| 20260507122041 | 16 | 352 | 35.4 | 48.3 | 0.10 | 0.15 | 0.03 | 98 | 1018.2 |
| 20260507121034 | 16 | 3 | 32.2 | 48.3 | 0.05 | 0.13 | 0.00 | 97 | 1018.2 |
| 20260507120031 | 16 | 356 | 33.8 | 48.3 | 0.05 | 0.13 | 0.00 | 97 | 1018.3 |
| 20260507115030 | 16 | 343 | 35.4 | 54.7 | 0.10 | 0.13 | 0.13 | 96 | 1018.3 |
| 20260507114104 | 16 | 338 | 33.8 | 59.5 | 0.05 | 0.10 | 0.10 | 95 | 1018.5 |
| 20260507113042 | 16 | 358 | 33.8 | 49.9 | 0.10 | 0.10 | 0.10 | 95 | 1018.6 |
| 20260507112017 | 16 | 350 | 35.4 | 51.5 | 0.05 | 0.05 | 0.05 | 94 | 1018.8 |
| 20260507111114 | 16 | 341 | 33.8 | 54.7 | 0.05 | 0.05 | 0.05 | 94 | 1018.9 |